createdAt,value
2023-04-22T00:01:18.184Z,20.89
2023-04-22T00:03:46.368Z,20.89
2023-04-22T00:06:14.567Z,20.90
2023-04-22T00:08:42.490Z,20.87
2023-04-22T00:11:10.897Z,20.87
2023-04-22T00:13:40.262Z,20.86
2023-04-22T00:16:08.476Z,20.84
2023-04-22T00:18:36.629Z,20.83
2023-04-22T00:21:04.748Z,20.81
2023-04-22T00:23:32.744Z,20.82
2023-04-22T00:26:00.731Z,20.83
2023-04-22T00:28:28.760Z,20.80
2023-04-22T00:30:58.876Z,20.79
2023-04-22T00:33:26.944Z,20.78
2023-04-22T00:35:54.912Z,20.76
2023-04-22T00:38:22.950Z,20.76
2023-04-22T00:40:50.904Z,20.76
2023-04-22T00:43:18.900Z,20.76
2023-04-22T00:45:46.809Z,20.76
2023-04-22T00:48:16.126Z,20.74
2023-04-22T00:50:44.120Z,20.73
2023-04-22T00:53:12.140Z,20.72
2023-04-22T00:55:40.020Z,20.72
2023-04-22T00:58:07.956Z,20.70
2023-04-22T01:00:35.996Z,20.70
2023-04-22T01:03:04.233Z,20.69
2023-04-22T01:05:33.721Z,20.67
2023-04-22T01:08:01.746Z,20.65
2023-04-22T01:10:29.672Z,20.66
2023-04-22T01:12:57.647Z,20.65
2023-04-22T01:15:25.587Z,20.65
2023-04-22T01:17:53.736Z,20.64
2023-04-22T01:20:21.809Z,20.64
2023-04-22T01:22:51.133Z,20.64
2023-04-22T01:25:20.430Z,20.62
2023-04-22T01:27:48.353Z,20.61
2023-04-22T01:30:17.008Z,20.60
2023-04-22T01:32:44.951Z,20.60
2023-04-22T01:35:12.914Z,20.60
2023-04-22T01:37:40.851Z,20.59
2023-04-22T01:40:10.242Z,20.57
2023-04-22T01:42:39.585Z,20.56
2023-04-22T01:45:08.671Z,20.55
2023-04-22T01:47:36.638Z,20.56
2023-04-22T01:50:04.808Z,20.52
2023-04-22T01:52:32.739Z,20.50
2023-04-22T01:55:01.318Z,20.50
2023-04-22T01:57:29.385Z,20.50
2023-04-22T01:59:58.929Z,20.49
2023-04-22T02:02:26.969Z,20.48
2023-04-22T02:04:54.986Z,20.49
2023-04-22T02:07:22.943Z,20.48
2023-04-22T02:09:51.127Z,20.49
2023-04-22T02:12:19.093Z,20.47
2023-04-22T02:14:46.986Z,20.47
2023-04-22T02:17:17.708Z,20.45
2023-04-22T02:19:45.654Z,20.43
2023-04-22T02:22:13.602Z,20.43
2023-04-22T02:24:43.058Z,20.44
2023-04-22T02:27:11.037Z,20.43
2023-04-22T02:29:39.062Z,20.42
2023-04-22T02:32:07.420Z,20.41
2023-04-22T02:34:37.332Z,20.41
2023-04-22T02:37:05.540Z,20.40
2023-04-22T02:39:33.485Z,20.40
2023-04-22T02:42:03.074Z,20.40
2023-04-22T02:44:31.055Z,20.38
2023-04-22T02:46:59.061Z,20.36
2023-04-22T02:49:27.080Z,20.38
2023-04-22T02:51:56.347Z,20.37
2023-04-22T02:54:24.276Z,20.35
2023-04-22T02:56:52.249Z,20.35
2023-04-22T02:59:20.155Z,20.34
2023-04-22T03:01:48.043Z,20.32
2023-04-22T03:04:16.421Z,20.30
2023-04-22T03:06:44.425Z,20.30
2023-04-22T03:09:13.758Z,20.30
2023-04-22T03:11:41.740Z,20.29
2023-04-22T03:14:09.729Z,20.29
2023-04-22T03:16:37.922Z,20.30
2023-04-22T03:19:05.947Z,20.29
2023-04-22T03:21:33.883Z,20.27
2023-04-22T03:24:01.845Z,20.28
2023-04-22T03:26:31.181Z,20.27
2023-04-22T03:28:59.094Z,20.27
2023-04-22T03:31:27.036Z,20.26
2023-04-22T03:33:55.101Z,20.27
2023-04-22T03:36:23.030Z,20.23
2023-04-22T03:38:51.045Z,20.23
2023-04-22T03:41:19.020Z,20.23
2023-04-22T03:43:48.350Z,20.23
2023-04-22T03:46:17.256Z,20.23
2023-04-22T03:48:45.187Z,20.23
2023-04-22T03:51:13.133Z,20.24
2023-04-22T03:53:41.083Z,20.22
2023-04-22T03:56:09.124Z,20.21
2023-04-22T03:58:37.025Z,20.21
2023-04-22T04:01:06.608Z,20.19
2023-04-22T04:03:34.690Z,20.17
2023-04-22T04:06:02.868Z,20.18
2023-04-22T04:08:30.893Z,20.19
2023-04-22T04:10:58.861Z,20.18
2023-04-22T04:13:26.818Z,20.17
2023-04-22T04:15:54.808Z,20.18
2023-04-22T04:18:24.943Z,20.17
2023-04-22T04:20:52.917Z,20.16
2023-04-22T04:23:20.847Z,20.16
2023-04-22T04:25:48.798Z,20.16
2023-04-22T04:28:17.780Z,20.16
2023-04-22T04:30:45.723Z,20.16
2023-04-22T04:33:13.754Z,20.16
2023-04-22T04:35:43.382Z,20.17
2023-04-22T04:38:11.960Z,20.17
2023-04-22T04:40:39.899Z,20.18
2023-04-22T04:43:08.625Z,20.20
2023-04-22T04:45:37.780Z,20.19
2023-04-22T04:48:07.165Z,20.18
2023-04-22T04:50:35.322Z,20.20
2023-04-22T04:53:04.733Z,20.20
2023-04-22T04:55:32.664Z,20.19
2023-04-22T04:58:00.664Z,20.21
2023-04-22T05:00:28.824Z,20.20
2023-04-22T05:02:57.012Z,20.22
2023-04-22T05:05:25.117Z,20.20
2023-04-22T05:07:53.915Z,20.20
2023-04-22T05:10:23.277Z,20.22
2023-04-22T05:12:51.296Z,20.19
2023-04-22T05:15:19.306Z,20.19
2023-04-22T05:17:47.308Z,20.20
2023-04-22T05:20:15.315Z,20.19
2023-04-22T05:22:44.952Z,20.18
2023-04-22T05:25:12.911Z,20.20
2023-04-22T05:27:42.226Z,20.21
2023-04-22T05:30:11.172Z,20.22
2023-04-22T05:32:39.172Z,20.25
2023-04-22T05:35:07.952Z,20.27
2023-04-22T05:37:36.060Z,20.27
2023-04-22T05:40:04.014Z,20.31
2023-04-22T05:42:31.930Z,20.33
2023-04-22T05:45:01.254Z,20.34
2023-04-22T05:47:29.355Z,20.34
2023-04-22T05:49:57.332Z,20.33
2023-04-22T05:52:25.219Z,20.34
2023-04-22T05:54:53.275Z,20.35
2023-04-22T05:57:21.234Z,20.37
2023-04-22T05:59:49.127Z,20.36
2023-04-22T06:02:18.592Z,20.36
2023-04-22T06:04:46.922Z,20.37
2023-04-22T06:07:15.073Z,20.38
2023-04-22T06:09:43.227Z,20.38
2023-04-22T06:12:11.769Z,20.38
2023-04-22T06:14:39.666Z,20.39
2023-04-22T06:17:09.629Z,20.40
2023-04-22T06:19:39.218Z,20.41
2023-04-22T06:22:07.450Z,20.41
2023-04-22T06:24:35.360Z,20.42
2023-04-22T06:27:03.465Z,20.43
2023-04-22T06:29:31.425Z,20.43
2023-04-22T06:31:59.504Z,20.45
2023-04-22T06:34:27.423Z,20.46
2023-04-22T06:36:56.921Z,20.49
2023-04-22T06:39:24.816Z,20.49
2023-04-22T06:41:52.793Z,20.50
2023-04-22T06:44:20.738Z,20.52
2023-04-22T06:46:48.767Z,20.52
2023-04-22T06:49:16.751Z,20.52
2023-04-22T06:51:44.674Z,20.50
2023-04-22T06:54:13.971Z,20.52
2023-04-22T06:56:41.930Z,20.54
2023-04-22T06:59:09.878Z,20.55
2023-04-22T07:01:37.996Z,20.55
2023-04-22T07:04:06.154Z,20.57
2023-04-22T07:06:34.128Z,20.58
2023-04-22T07:09:02.012Z,20.60
2023-04-22T07:11:32.097Z,20.60
2023-04-22T07:14:00.031Z,20.62
2023-04-22T07:16:28.058Z,20.63
2023-04-22T07:18:56.117Z,20.67
2023-04-22T07:21:24.036Z,20.68
2023-04-22T07:23:52.313Z,20.71
2023-04-22T07:26:21.186Z,20.72
2023-04-22T07:28:50.484Z,20.76
2023-04-22T07:31:18.512Z,20.76
2023-04-22T07:33:46.493Z,20.77
2023-04-22T07:36:14.440Z,20.78
2023-04-22T07:38:42.505Z,20.79
2023-04-22T07:41:10.463Z,20.83
2023-04-22T07:43:38.389Z,20.84
2023-04-22T07:46:07.931Z,20.87
2023-04-22T07:48:36.506Z,20.89
2023-04-22T07:51:04.682Z,20.92
2023-04-22T07:53:32.670Z,20.95
2023-04-22T07:56:02.254Z,20.98
2023-04-22T07:58:30.337Z,21.01
2023-04-22T08:00:58.305Z,21.03
2023-04-22T08:03:28.109Z,21.04
2023-04-22T08:05:58.203Z,21.05
2023-04-22T08:08:26.632Z,21.05
2023-04-22T08:10:54.572Z,21.05
2023-04-22T08:13:22.576Z,21.06
2023-04-22T08:15:50.608Z,21.06
2023-04-22T08:18:18.575Z,21.06
2023-04-22T08:20:48.362Z,21.07
2023-04-22T08:23:16.357Z,21.07
2023-04-22T08:25:44.334Z,21.07
2023-04-22T08:28:12.213Z,21.08
2023-04-22T08:30:40.265Z,21.09
2023-04-22T08:33:08.244Z,21.12
2023-04-22T08:35:36.262Z,21.14
2023-04-22T08:38:05.590Z,21.14
2023-04-22T08:40:33.533Z,21.18
2023-04-22T08:43:01.479Z,21.19
2023-04-22T08:45:29.423Z,21.20
2023-04-22T08:47:57.441Z,21.20
2023-04-22T08:50:25.387Z,21.21
2023-04-22T08:52:53.330Z,21.23
2023-04-22T08:55:22.803Z,21.24
2023-04-22T08:57:50.728Z,21.24
2023-04-22T09:00:20.032Z,21.26
2023-04-22T09:02:48.482Z,21.29
2023-04-22T09:05:16.573Z,21.29
2023-04-22T09:07:44.581Z,21.31
2023-04-22T09:10:13.053Z,21.33
2023-04-22T09:12:42.766Z,21.34
2023-04-22T09:15:11.859Z,21.36
2023-04-22T09:17:39.835Z,21.37
2023-04-22T09:20:08.859Z,21.38
2023-04-22T09:22:41.530Z,21.40
2023-04-22T09:25:17.480Z,21.41
2023-04-22T09:27:49.707Z,21.44
2023-04-22T09:30:19.522Z,21.47
2023-04-22T09:32:54.003Z,21.50
2023-04-22T09:35:27.252Z,21.51
2023-04-22T09:37:55.250Z,21.54
2023-04-22T09:40:23.468Z,21.57
2023-04-22T09:42:53.571Z,21.59
2023-04-22T09:45:28.846Z,21.63
2023-04-22T09:47:57.127Z,21.65
2023-04-22T09:50:26.213Z,21.70
2023-04-22T09:52:56.362Z,21.74
2023-04-22T09:55:24.674Z,21.75
2023-04-22T09:57:54.740Z,21.77
2023-04-22T10:00:23.204Z,21.77
2023-04-22T10:02:51.236Z,21.78
2023-04-22T10:05:19.371Z,21.79
2023-04-22T10:07:47.367Z,21.80
2023-04-22T10:10:15.674Z,21.84
2023-04-22T10:12:43.656Z,21.85
2023-04-22T10:15:13.145Z,21.88
2023-04-22T10:17:41.172Z,21.89
2023-04-22T10:20:13.649Z,21.90
2023-04-22T10:22:42.766Z,21.92
2023-04-22T10:25:15.141Z,21.94
2023-04-22T10:27:43.417Z,21.97
2023-04-22T10:30:13.533Z,22.00
2023-04-22T10:32:41.520Z,22.03
2023-04-22T10:35:11.827Z,22.06
2023-04-22T10:37:44.642Z,22.09
2023-04-22T10:40:16.289Z,22.11
2023-04-22T10:42:47.747Z,22.16
2023-04-22T10:45:17.054Z,22.21
2023-04-22T10:47:45.008Z,22.23
2023-04-22T10:50:18.740Z,22.26
2023-04-22T10:52:49.107Z,22.26
2023-04-22T10:55:17.380Z,22.27
2023-04-22T10:57:45.879Z,22.29
2023-04-22T11:00:35.247Z,22.30
2023-04-22T11:03:28.304Z,22.33
2023-04-22T11:06:14.589Z,22.35
2023-04-22T11:08:45.535Z,22.37
2023-04-22T11:11:14.247Z,22.39
2023-04-22T11:13:43.740Z,22.41
2023-04-22T11:16:13.144Z,22.45
2023-04-22T11:18:41.106Z,22.49
2023-04-22T11:21:09.484Z,22.52
2023-04-22T11:23:37.511Z,22.56
2023-04-22T11:26:06.322Z,22.60
2023-04-22T11:28:34.276Z,22.64
2023-04-22T11:31:06.517Z,22.65
2023-04-22T11:33:36.136Z,22.66
2023-04-22T11:36:04.111Z,22.72
2023-04-22T11:38:33.166Z,22.82
2023-04-22T11:41:01.112Z,22.89
2023-04-22T11:43:29.060Z,22.91
2023-04-22T11:45:57.239Z,22.94
2023-04-22T11:48:25.279Z,22.97
2023-04-22T11:51:08.807Z,23.01
2023-04-22T11:53:38.667Z,23.02
2023-04-22T11:56:06.661Z,23.07
2023-04-22T11:58:34.638Z,23.12
2023-04-22T12:01:02.565Z,23.18
2023-04-22T12:03:31.348Z,23.22
2023-04-22T12:06:01.695Z,23.23
2023-04-22T12:08:32.687Z,23.23
2023-04-22T12:11:01.818Z,23.26
2023-04-22T12:13:30.850Z,23.27
2023-04-22T12:16:00.382Z,23.29
2023-04-22T12:18:31.794Z,23.30
2023-04-22T12:21:09.313Z,23.34
2023-04-22T12:23:42.621Z,23.37
2023-04-22T12:26:10.650Z,23.36
2023-04-22T12:28:38.616Z,23.39
2023-04-22T12:31:06.841Z,23.42
2023-04-22T12:33:34.827Z,23.47
2023-04-22T12:36:04.305Z,23.48
2023-04-22T12:38:32.233Z,23.52
2023-04-22T12:41:00.351Z,23.54
2023-04-22T12:43:28.454Z,23.57
2023-04-22T12:45:56.377Z,23.61
2023-04-22T12:48:24.304Z,23.66
2023-04-22T12:50:52.298Z,23.70
2023-04-22T12:53:21.973Z,23.75
2023-04-22T12:55:49.940Z,23.79
2023-04-22T12:58:17.905Z,23.81
2023-04-22T13:00:45.852Z,23.84
2023-04-22T13:03:13.893Z,23.86
2023-04-22T13:05:41.891Z,23.88
2023-04-22T13:08:09.904Z,23.89
2023-04-22T13:10:39.342Z,23.89
2023-04-22T13:15:39.300Z,24.00
2023-04-22T13:18:07.400Z,24.06
2023-04-22T13:20:36.009Z,24.08
2023-04-22T13:23:04.773Z,24.10
2023-04-22T13:25:32.927Z,24.11
2023-04-22T13:28:02.259Z,24.10
2023-04-22T13:30:30.278Z,24.10
2023-04-22T13:32:58.280Z,24.15
2023-04-22T13:35:26.222Z,24.19
2023-04-22T13:37:54.183Z,24.20
2023-04-22T13:40:22.242Z,24.18
2023-04-22T13:42:50.238Z,24.18
2023-04-22T13:45:19.605Z,24.20
2023-04-22T13:47:47.611Z,24.21
2023-04-22T13:50:15.620Z,24.26
2023-04-22T13:52:43.504Z,24.33
2023-04-22T13:55:11.844Z,24.42
2023-04-22T13:57:39.850Z,24.44
2023-04-22T14:00:09.411Z,24.43
2023-04-22T14:02:38.761Z,24.44
2023-04-22T14:05:07.729Z,24.47
2023-04-22T14:07:36.150Z,24.46
2023-04-22T14:10:04.363Z,24.43
2023-04-22T14:12:32.293Z,24.46
2023-04-22T14:15:00.201Z,24.50
2023-04-22T14:17:28.203Z,24.53
2023-04-22T14:19:57.829Z,24.60
2023-04-22T14:22:25.928Z,24.67
2023-04-22T14:24:53.910Z,24.71
2023-04-22T14:27:21.821Z,24.69
2023-04-22T14:29:52.296Z,24.69
2023-04-22T14:32:20.413Z,24.67
2023-04-22T14:34:48.430Z,24.66
2023-04-22T14:37:17.718Z,24.65
2023-04-22T14:39:45.819Z,24.63
2023-04-22T14:42:13.804Z,24.63
2023-04-22T14:44:41.737Z,24.74
2023-04-22T14:47:09.699Z,24.88
2023-04-22T14:49:37.850Z,25.12
2023-04-22T14:52:06.872Z,25.44
2023-04-22T14:54:36.241Z,25.80
2023-04-22T14:57:04.197Z,25.92
2023-04-22T14:59:32.142Z,26.10
2023-04-22T15:02:00.191Z,26.20
2023-04-22T15:04:28.356Z,26.11
2023-04-22T15:06:57.678Z,26.41
2023-04-22T15:09:25.655Z,26.66
2023-04-22T15:11:56.515Z,26.53
2023-04-22T15:14:24.675Z,25.97
2023-04-22T15:16:52.620Z,25.83
2023-04-22T15:19:20.558Z,26.04
2023-04-22T15:21:48.487Z,26.34
2023-04-22T15:24:16.451Z,26.57
2023-04-22T15:26:44.386Z,26.28
2023-04-22T15:29:13.728Z,25.90
2023-04-22T15:31:41.707Z,25.61
2023-04-22T15:34:09.705Z,25.47
2023-04-22T15:36:38.323Z,25.79
2023-04-22T15:39:06.388Z,26.24
2023-04-22T15:41:34.991Z,26.03
2023-04-22T15:44:03.550Z,25.92
2023-04-22T15:46:33.373Z,25.91
2023-04-22T15:49:01.870Z,25.89
2023-04-22T15:51:29.835Z,25.87
2023-04-22T15:53:58.290Z,25.86
2023-04-22T15:56:26.589Z,25.84
2023-04-22T15:58:54.586Z,25.76
2023-04-22T16:01:22.576Z,25.64
2023-04-22T16:03:52.147Z,25.51
2023-04-22T16:06:20.315Z,25.38
2023-04-22T16:08:48.904Z,25.27
2023-04-22T16:11:16.869Z,25.17
2023-04-22T16:13:44.797Z,25.09
2023-04-22T16:16:12.753Z,25.05
2023-04-22T16:18:42.858Z,25.00
2023-04-22T16:21:13.494Z,24.94
2023-04-22T16:23:41.425Z,24.91
2023-04-22T16:26:09.497Z,24.86
2023-04-22T16:28:37.445Z,24.84
2023-04-22T16:31:05.509Z,24.82
2023-04-22T16:33:34.068Z,24.82
2023-04-22T16:36:02.129Z,24.82
2023-04-22T16:38:31.475Z,24.82
2023-04-22T16:40:59.426Z,24.82
2023-04-22T16:43:27.420Z,24.82
2023-04-22T16:45:55.426Z,24.83
2023-04-22T16:48:23.521Z,24.82
2023-04-22T16:50:52.625Z,24.76
2023-04-22T16:53:20.601Z,24.71
2023-04-22T16:55:49.913Z,24.67
2023-04-22T16:58:17.927Z,24.63
2023-04-22T17:00:47.596Z,24.62
2023-04-22T17:03:16.466Z,24.57
2023-04-22T17:05:44.560Z,24.53
2023-04-22T17:08:12.545Z,24.47
2023-04-22T17:10:45.097Z,24.42
2023-04-22T17:13:14.645Z,24.40
2023-04-22T17:15:42.618Z,24.35
2023-04-22T17:18:10.710Z,24.32
2023-04-22T17:20:38.660Z,24.27
2023-04-22T17:23:06.597Z,24.21
2023-04-22T17:25:34.545Z,24.18
2023-04-22T17:28:02.582Z,24.16
2023-04-22T17:30:32.004Z,24.14
2023-04-22T17:33:00.008Z,24.13
2023-04-22T17:35:27.988Z,24.14
2023-04-22T17:37:57.793Z,24.13
2023-04-22T17:40:25.848Z,24.14
2023-04-22T17:42:53.808Z,24.14
2023-04-22T17:45:21.802Z,24.13
2023-04-22T17:47:51.254Z,24.10
2023-04-22T17:50:19.733Z,24.10
2023-04-22T17:52:47.694Z,24.06
2023-04-22T17:55:15.644Z,24.03
2023-04-22T17:57:43.609Z,24.00
2023-04-22T18:00:14.508Z,23.89
2023-04-22T18:02:42.691Z,23.92
2023-04-22T18:05:12.379Z,23.87
2023-04-22T18:07:40.369Z,23.83
2023-04-22T18:10:10.050Z,23.79
2023-04-22T18:12:37.952Z,23.76
2023-04-22T18:15:07.111Z,23.72
2023-04-22T18:17:35.123Z,23.70
2023-04-22T18:20:16.604Z,23.67
